createdAt,value
2022-10-12T00:00:58.979Z,96739.22
2022-10-12T00:02:04.148Z,96728.03
2022-10-12T00:03:06.467Z,96736.63
2022-10-12T00:04:13.962Z,96731.44
2022-10-12T00:05:16.555Z,96732.31
2022-10-12T00:06:23.561Z,96730.63
2022-10-12T00:07:25.809Z,96734.16
2022-10-12T00:08:30.849Z,96723.91
2022-10-12T00:09:36.161Z,96730.00
2022-10-12T00:10:44.480Z,96731.81
2022-10-12T00:11:52.326Z,96735.84
2022-10-12T00:12:56.474Z,96727.41
2022-10-12T00:14:04.247Z,96728.31
2022-10-12T00:15:07.495Z,96743.91
2022-10-12T00:16:18.204Z,96730.91
2022-10-12T00:17:20.478Z,96741.50
2022-10-12T00:18:25.583Z,96738.13
2022-10-12T00:19:30.621Z,96741.78
2022-10-12T00:20:35.837Z,96741.00
2022-10-12T00:21:39.378Z,96745.34
2022-10-12T00:22:44.392Z,96740.34
2022-10-12T00:23:47.208Z,96737.06
2022-10-12T00:24:52.199Z,96738.88
2022-10-12T00:25:54.462Z,96735.56
2022-10-12T00:26:59.186Z,96733.25
2022-10-12T00:28:01.519Z,96741.88
2022-10-12T00:29:07.208Z,96736.03
2022-10-12T00:30:11.401Z,96739.69
2022-10-12T00:31:18.943Z,96739.03
2022-10-12T00:32:23.791Z,96736.56
2022-10-12T00:33:27.775Z,96738.38
2022-10-12T00:34:35.285Z,96739.34
2022-10-12T00:35:37.531Z,96741.25
2022-10-12T00:36:42.443Z,96738.13
2022-10-12T00:37:44.693Z,96724.59
2022-10-12T00:38:51.757Z,96736.06
2022-10-12T00:39:54.099Z,96737.16
2022-10-12T00:40:58.783Z,96738.25
2022-10-12T00:42:01.096Z,96738.44
2022-10-12T00:43:06.024Z,96736.13
2022-10-12T00:44:39.272Z,96739.91
2022-10-12T00:45:44.021Z,96725.50
2022-10-12T00:46:46.975Z,96743.63
2022-10-12T00:47:54.181Z,96735.19
2022-10-12T00:48:59.744Z,96728.38
2022-10-12T00:50:12.959Z,96731.09
2022-10-12T00:51:17.239Z,96724.41
2022-10-12T00:52:26.064Z,96729.97
2022-10-12T00:53:33.102Z,96731.84
2022-10-12T00:54:42.564Z,96731.19
2022-10-12T00:55:50.043Z,96731.34
2022-10-12T00:56:59.910Z,96724.53
2022-10-12T00:58:06.126Z,96736.78
2022-10-12T00:59:12.985Z,96738.53
2022-10-12T01:00:18.768Z,96726.47
2022-10-12T01:01:22.222Z,96732.50
2022-10-12T01:02:29.259Z,96737.69
2022-10-12T01:03:35.197Z,96731.63
2022-10-12T01:04:41.858Z,96739.41
2022-10-12T01:05:46.635Z,96738.66
2022-10-12T01:06:54.681Z,96731.63
2022-10-12T01:07:57.176Z,96741.16
2022-10-12T01:09:02.536Z,96729.97
2022-10-12T01:10:05.848Z,96740.31
2022-10-12T01:11:11.868Z,96732.69
2022-10-12T01:12:14.277Z,96733.59
2022-10-12T01:13:19.613Z,96739.78
2022-10-12T01:14:21.892Z,96739.00
2022-10-12T01:15:32.172Z,96740.94
2022-10-12T01:16:43.113Z,96735.84
2022-10-12T01:17:59.072Z,96735.84
2022-10-12T01:19:15.546Z,96735.13
2022-10-12T01:20:39.686Z,96734.28
2022-10-12T01:21:51.551Z,96730.78
2022-10-12T01:23:20.711Z,96732.66
2022-10-12T01:24:54.526Z,96731.75
2022-10-12T01:26:17.139Z,96729.09
2022-10-12T01:27:36.213Z,96725.59
2022-10-12T01:28:49.255Z,96727.31
2022-10-12T01:30:19.778Z,96733.34
2022-10-12T01:31:32.725Z,96732.41
2022-10-12T01:32:46.591Z,96724.66
2022-10-12T01:33:59.761Z,96725.47
2022-10-12T01:35:06.587Z,96725.56
2022-10-12T01:36:18.463Z,96713.44
2022-10-12T01:37:28.269Z,96714.28
2022-10-12T01:38:44.361Z,96719.53
2022-10-12T01:39:52.465Z,96711.88
2022-10-12T01:41:03.346Z,96718.88
2022-10-12T01:42:11.342Z,96721.56
2022-10-12T01:43:19.684Z,96713.13
2022-10-12T01:44:22.630Z,96709.78
2022-10-12T01:45:30.133Z,96709.03
2022-10-12T01:46:45.786Z,96720.31
2022-10-12T01:47:52.939Z,96708.41
2022-10-12T01:48:58.265Z,96717.97
2022-10-12T01:50:04.725Z,96710.19
2022-10-12T01:51:08.805Z,96714.47
2022-10-12T01:52:33.037Z,96714.47
2022-10-12T01:53:44.170Z,96708.44
2022-10-12T01:55:13.515Z,96701.47
2022-10-12T01:56:24.326Z,96710.19
2022-10-12T01:57:36.520Z,96716.16
2022-10-12T01:59:00.095Z,96711.09
2022-10-12T02:00:06.406Z,96709.50
2022-10-12T02:01:22.181Z,96714.78
2022-10-12T02:02:32.667Z,96713.13
2022-10-12T02:03:44.545Z,96712.25
2022-10-12T02:04:53.040Z,96707.22
2022-10-12T02:06:03.584Z,96707.22
2022-10-12T02:07:14.106Z,96706.25
2022-10-12T02:08:25.537Z,96709.75
2022-10-12T02:09:32.685Z,96718.19
2022-10-12T02:10:38.963Z,96713.78
2022-10-12T02:11:46.616Z,96710.34
2022-10-12T02:12:51.946Z,96718.19
2022-10-12T02:14:03.962Z,96717.41
2022-10-12T02:15:08.687Z,96710.63
2022-10-12T02:16:18.909Z,96716.84
2022-10-12T02:17:23.644Z,96714.38
2022-10-12T02:18:30.203Z,96708.34
2022-10-12T02:19:39.867Z,96718.75
2022-10-12T02:20:45.546Z,96715.28
2022-10-12T02:21:49.341Z,96715.28
2022-10-12T02:22:55.297Z,96713.56
2022-10-12T02:24:00.499Z,96711.06
2022-10-12T02:25:09.138Z,96712.72
2022-10-12T02:26:13.621Z,96710.09
2022-10-12T02:27:21.163Z,96715.28
2022-10-12T02:28:26.843Z,96703.22
2022-10-12T02:29:36.906Z,96707.50
2022-10-12T02:30:47.912Z,96712.69
2022-10-12T02:31:59.600Z,96708.38
2022-10-12T02:33:06.433Z,96708.50
2022-10-12T02:34:14.982Z,96710.31
2022-10-12T02:35:24.514Z,96707.00
2022-10-12T02:36:37.244Z,96694.13
2022-10-12T02:37:43.011Z,96701.97
2022-10-12T02:38:56.552Z,96697.03
2022-10-12T02:40:05.444Z,96694.50
2022-10-12T02:41:15.342Z,96696.28
2022-10-12T02:42:22.038Z,96701.69
2022-10-12T02:43:30.931Z,96694.94
2022-10-12T02:44:37.607Z,96695.03
2022-10-12T02:45:46.451Z,96689.25
2022-10-12T02:46:50.570Z,96693.63
2022-10-12T02:48:00.917Z,96687.66
2022-10-12T02:49:04.647Z,96694.66
2022-10-12T02:50:12.453Z,96698.94
2022-10-12T02:51:14.910Z,96692.16
2022-10-12T02:52:19.609Z,96694.84
2022-10-12T02:53:23.373Z,96694.94
2022-10-12T02:54:28.402Z,96694.94
2022-10-12T02:55:30.890Z,96695.59
2022-10-12T02:56:35.762Z,96692.94
2022-10-12T02:57:38.072Z,96693.00
2022-10-12T02:58:45.954Z,96697.28
2022-10-12T02:59:50.844Z,96685.28
2022-10-12T03:00:55.936Z,96687.84
2022-10-12T03:01:58.314Z,96692.25
2022-10-12T03:03:05.746Z,96693.16
2022-10-12T03:04:08.276Z,96690.56
2022-10-12T03:05:13.131Z,96692.25
2022-10-12T03:06:15.619Z,96693.16
2022-10-12T03:07:20.584Z,96695.75
2022-10-12T03:08:22.829Z,96692.34
2022-10-12T03:09:27.814Z,96695.97
2022-10-12T03:10:29.965Z,96696.75
2022-10-12T03:11:34.988Z,96692.34
2022-10-12T03:12:39.958Z,96694.84
2022-10-12T03:13:42.202Z,96697.34
2022-10-12T03:14:47.033Z,96696.09
2022-10-12T03:15:49.193Z,96698.00
2022-10-12T03:16:53.858Z,96692.75
2022-10-12T03:17:56.037Z,96693.47
2022-10-12T03:19:03.356Z,96689.94
2022-10-12T03:20:06.728Z,96697.69
2022-10-12T03:21:11.421Z,96694.28
2022-10-12T03:22:13.458Z,96704.66
2022-10-12T03:23:18.132Z,96702.03
2022-10-12T03:24:20.256Z,96704.66
2022-10-12T03:25:24.964Z,96699.50
2022-10-12T03:26:27.187Z,96701.38
2022-10-12T03:27:31.870Z,96704.88
2022-10-12T03:28:34.807Z,96699.59
2022-10-12T03:29:39.628Z,96708.28
2022-10-12T03:30:43.080Z,96701.47
2022-10-12T03:31:47.823Z,96704.03
2022-10-12T03:32:50.029Z,96701.50
2022-10-12T03:33:54.983Z,96703.28
2022-10-12T03:34:59.843Z,96707.50
2022-10-12T03:36:04.859Z,96709.09
2022-10-12T03:37:09.582Z,96700.59
2022-10-12T03:38:12.057Z,96712.56
2022-10-12T03:39:16.909Z,96715.22
2022-10-12T03:40:19.002Z,96705.88
2022-10-12T03:41:23.702Z,96710.28
2022-10-12T03:42:26.059Z,96717.13
2022-10-12T03:43:31.000Z,96712.75
2022-10-12T03:44:33.159Z,96713.44
2022-10-12T03:45:38.080Z,96715.00
2022-10-12T03:46:40.293Z,96717.44
2022-10-12T03:47:45.144Z,96714.84
2022-10-12T03:48:47.367Z,96716.50
2022-10-12T03:49:52.379Z,96726.78
2022-10-12T03:50:57.227Z,96721.56
2022-10-12T03:52:01.913Z,96718.03
2022-10-12T03:53:05.560Z,96718.69
2022-10-12T03:54:10.340Z,96710.88
2022-10-12T03:55:13.433Z,96715.13
2022-10-12T03:56:18.694Z,96711.59
2022-10-12T03:57:21.054Z,96715.81
2022-10-12T03:58:26.292Z,96715.78
2022-10-12T03:59:28.755Z,96724.28
2022-10-12T04:00:33.646Z,96718.25
2022-10-12T04:01:36.148Z,96723.34
2022-10-12T04:02:40.979Z,96722.47
2022-10-12T04:03:43.351Z,96717.19
2022-10-12T04:04:52.188Z,96715.38
2022-10-12T04:05:58.369Z,96711.91
2022-10-12T04:07:03.151Z,96723.94
2022-10-12T04:08:06.039Z,96718.63
2022-10-12T04:09:11.589Z,96716.84
2022-10-12T04:10:13.834Z,96715.88
2022-10-12T04:11:20.500Z,96710.59
2022-10-12T04:12:22.784Z,96718.19
2022-10-12T04:13:30.445Z,96717.16
2022-10-12T04:14:32.626Z,96715.28
2022-10-12T04:15:37.297Z,96715.97
2022-10-12T04:16:39.536Z,96712.44
2022-10-12T04:17:44.209Z,96714.91
2022-10-12T04:18:46.455Z,96713.00
2022-10-12T04:19:51.461Z,96718.78
2022-10-12T04:20:56.492Z,96714.47
2022-10-12T04:22:01.436Z,96717.78
2022-10-12T04:23:03.794Z,96712.59
2022-10-12T04:24:09.678Z,96715.06
2022-10-12T04:25:12.394Z,96712.44
2022-10-12T04:26:17.303Z,96712.38
2022-10-12T04:27:19.466Z,96709.66
2022-10-12T04:28:24.343Z,96711.22
2022-10-12T04:29:26.951Z,96711.22
2022-10-12T04:30:33.273Z,96712.91
2022-10-12T04:31:35.386Z,96716.34
2022-10-12T04:32:40.259Z,96718.09
2022-10-12T04:33:42.266Z,96716.34
2022-10-12T04:34:47.267Z,96713.75
2022-10-12T04:35:49.435Z,96719.84
2022-10-12T04:36:56.748Z,96709.41
2022-10-12T04:37:59.063Z,96712.00
2022-10-12T04:39:03.774Z,96708.63
2022-10-12T04:40:07.417Z,96712.94
2022-10-12T04:41:12.009Z,96721.66
2022-10-12T04:42:14.035Z,96716.47
2022-10-12T04:43:19.564Z,96714.78
2022-10-12T04:44:21.731Z,96719.19
2022-10-12T04:45:29.593Z,96718.38
2022-10-12T04:46:31.755Z,96723.56
2022-10-12T04:47:37.530Z,96720.97
2022-10-12T04:48:40.038Z,96715.78
2022-10-12T04:49:44.860Z,96720.97
2022-10-12T04:50:46.995Z,96720.84
2022-10-12T04:52:04.470Z,96723.44
2022-10-12T04:53:12.978Z,96722.44
2022-10-12T04:54:20.595Z,96729.28
2022-10-12T04:55:22.936Z,96726.69
2022-10-12T04:56:31.103Z,96720.56
2022-10-12T04:57:33.333Z,96719.72
2022-10-12T04:58:41.792Z,96720.50
2022-10-12T04:59:46.949Z,96723.09
2022-10-12T05:00:54.206Z,96718.75
2022-10-12T05:01:56.663Z,96726.56
2022-10-12T05:03:04.751Z,96727.38
2022-10-12T05:04:10.040Z,96726.47
2022-10-12T05:05:15.078Z,96723.09
2022-10-12T05:06:18.524Z,96717.78
2022-10-12T05:07:26.345Z,96722.97
2022-10-12T05:08:31.738Z,96716.03
2022-10-12T05:09:34.010Z,96717.78
2022-10-12T05:10:38.813Z,96716.09
2022-10-12T05:11:40.964Z,96718.75
2022-10-12T05:12:45.740Z,96714.53
2022-10-12T05:13:50.167Z,96715.38
2022-10-12T05:14:54.870Z,96718.94
2022-10-12T05:15:57.100Z,96717.19
2022-10-12T05:17:01.843Z,96725.03
2022-10-12T05:18:04.153Z,96716.47
2022-10-12T05:19:10.398Z,96715.63
2022-10-12T05:20:12.877Z,96716.34
2022-10-12T05:21:17.654Z,96716.34
2022-10-12T05:22:22.403Z,96722.34
2022-10-12T05:23:27.076Z,96707.69
2022-10-12T05:24:29.193Z,96721.47
2022-10-12T05:25:35.411Z,96713.88
2022-10-12T05:26:37.489Z,96720.72
2022-10-12T05:27:42.421Z,96720.63
2022-10-12T05:28:47.538Z,96719.47
2022-10-12T05:29:49.756Z,96721.28
2022-10-12T05:30:55.069Z,96718.75
2022-10-12T05:31:59.711Z,96718.81
2022-10-12T05:33:01.796Z,96722.97
2022-10-12T05:34:06.733Z,96715.38
2022-10-12T05:35:12.431Z,96717.00
2022-10-12T05:36:14.957Z,96718.03
2022-10-12T05:37:21.327Z,96723.31
2022-10-12T05:38:26.332Z,96710.19
2022-10-12T05:39:31.331Z,96725.03
2022-10-12T05:40:33.709Z,96720.84
2022-10-12T05:41:38.396Z,96726.81
2022-10-12T05:42:43.630Z,96721.66
2022-10-12T05:43:49.644Z,96723.41
2022-10-12T05:44:51.994Z,96723.31
2022-10-12T05:45:56.738Z,96715.53
2022-10-12T05:46:59.370Z,96730.09
2022-10-12T05:48:04.046Z,96722.31
2022-10-12T05:49:06.985Z,96723.09
2022-10-12T05:50:14.833Z,96723.88
2022-10-12T05:51:16.950Z,96724.78
2022-10-12T05:52:21.790Z,96728.16
2022-10-12T05:53:26.577Z,96737.50
2022-10-12T05:54:33.382Z,96730.50
2022-10-12T05:55:40.478Z,96732.00
2022-10-12T05:56:44.272Z,96733.50
2022-10-12T05:57:52.002Z,96727.28
2022-10-12T05:58:54.219Z,96727.00
2022-10-12T05:59:59.154Z,96737.06
2022-10-12T06:01:06.252Z,96731.75
2022-10-12T06:02:16.570Z,96740.22
2022-10-12T06:03:25.763Z,96734.88
2022-10-12T06:04:31.152Z,96734.88
2022-10-12T06:05:33.422Z,96736.50
2022-10-12T06:06:38.108Z,96737.16
2022-10-12T06:07:40.330Z,96743.88
2022-10-12T06:08:47.805Z,96735.13
2022-10-12T06:09:50.437Z,96744.38
2022-10-12T06:10:58.100Z,96738.22
2022-10-12T06:12:05.513Z,96737.22
2022-10-12T06:13:10.419Z,96743.97
2022-10-12T06:14:12.952Z,96743.78
2022-10-12T06:15:20.981Z,96738.38
2022-10-12T06:16:25.138Z,96742.56
2022-10-12T06:17:32.226Z,96741.50
2022-10-12T06:18:34.508Z,96739.69
2022-10-12T06:19:39.378Z,96745.66
2022-10-12T06:20:49.191Z,96743.81
2022-10-12T06:21:56.940Z,96743.69
2022-10-12T06:22:59.487Z,96737.59
2022-10-12T06:24:07.365Z,96742.44
2022-10-12T06:25:12.719Z,96737.19
2022-10-12T06:26:19.147Z,96743.09
2022-10-12T06:27:26.044Z,96733.56
2022-10-12T06:28:28.910Z,96737.84
2022-10-12T06:29:34.149Z,96741.97
2022-10-12T06:30:36.368Z,96747.16
2022-10-12T06:31:41.290Z,96740.16
2022-10-12T06:32:53.434Z,96745.16
2022-10-12T06:33:58.447Z,96748.47
2022-10-12T06:35:00.816Z,96747.34
2022-10-12T06:36:08.425Z,96743.97
2022-10-12T06:37:20.473Z,96744.81
2022-10-12T06:38:35.326Z,96750.91
2022-10-12T06:39:44.453Z,96751.56
2022-10-12T06:40:50.635Z,96756.63
2022-10-12T06:41:54.335Z,96747.75
2022-10-12T06:43:02.754Z,96750.44
2022-10-12T06:44:05.646Z,96745.84
2022-10-12T06:45:11.734Z,96741.41
2022-10-12T06:46:18.179Z,96749.06
2022-10-12T06:47:20.910Z,96750.75
2022-10-12T06:48:25.752Z,96747.13
2022-10-12T06:49:29.229Z,96740.78
2022-10-12T06:50:34.465Z,96745.84
2022-10-12T06:51:40.435Z,96748.25
2022-10-12T06:52:43.800Z,96747.97
2022-10-12T06:53:48.627Z,96744.22
2022-10-12T06:54:54.591Z,96748.50
2022-10-12T06:56:02.094Z,96756.09
2022-10-12T06:57:08.622Z,96751.59
2022-10-12T06:58:10.883Z,96753.97
2022-10-12T06:59:16.287Z,96752.84
2022-10-12T07:00:18.729Z,96752.69
2022-10-12T07:01:23.570Z,96743.81
2022-10-12T07:02:25.761Z,96748.88
2022-10-12T07:03:30.516Z,96750.50
2022-10-12T07:04:32.810Z,96750.50
2022-10-12T07:05:37.407Z,96752.81
2022-10-12T07:06:39.528Z,96745.78
2022-10-12T07:07:44.227Z,96748.31
2022-10-12T07:08:46.882Z,96752.53
2022-10-12T07:09:51.991Z,96754.88
2022-10-12T07:11:03.310Z,96749.69
2022-10-12T07:12:08.226Z,96755.91
2022-10-12T07:13:10.241Z,96754.50
2022-10-12T07:14:14.991Z,96760.50
2022-10-12T07:15:20.170Z,96754.31
2022-10-12T07:16:22.291Z,96757.69
2022-10-12T07:17:27.164Z,96750.63
2022-10-12T07:18:29.630Z,96751.19
2022-10-12T07:19:34.239Z,96747.50
2022-10-12T07:20:36.837Z,96756.38
2022-10-12T07:21:42.286Z,96752.53
2022-10-12T07:22:44.845Z,96754.78
2022-10-12T07:23:49.686Z,96752.69
2022-10-12T07:24:51.774Z,96747.44
2022-10-12T07:25:56.995Z,96755.91
2022-10-12T07:27:40.318Z,96746.78
2022-10-12T07:29:00.068Z,96748.03
2022-10-12T07:30:13.422Z,96749.16
2022-10-12T07:31:35.052Z,96742.03
2022-10-12T07:32:50.382Z,96741.31
2022-10-12T07:34:25.605Z,96744.63
2022-10-12T07:35:56.927Z,96738.81
2022-10-12T07:37:19.988Z,96736.47
2022-10-12T07:38:36.357Z,96731.25
2022-10-12T07:39:53.192Z,96736.59
2022-10-12T07:41:01.906Z,96738.53
2022-10-12T07:42:26.108Z,96741.75
2022-10-12T07:45:38.677Z,96738.09
2022-10-12T07:47:01.044Z,96740.78
2022-10-12T07:48:13.599Z,96734.88
2022-10-12T07:49:19.425Z,96736.81
2022-10-12T07:50:21.730Z,96749.16
2022-10-12T07:51:26.640Z,96737.06
2022-10-12T07:52:28.873Z,96736.38
2022-10-12T07:53:33.585Z,96736.72
2022-10-12T07:54:38.392Z,96736.00
2022-10-12T07:55:43.247Z,96735.19
2022-10-12T07:56:47.912Z,96743.06
2022-10-12T07:57:55.228Z,96737.34
2022-10-12T07:58:59.425Z,96732.59
2022-10-12T08:00:04.183Z,96737.69
2022-10-12T08:01:07.681Z,96738.63
2022-10-12T08:02:13.773Z,96737.16
2022-10-12T08:03:18.449Z,96736.41
2022-10-12T08:04:23.076Z,96740.25
2022-10-12T08:05:25.110Z,96736.16
2022-10-12T08:06:31.866Z,96732.41
2022-10-12T08:07:34.115Z,96742.84
2022-10-12T08:08:38.982Z,96743.69
2022-10-12T08:09:45.563Z,96737.16
2022-10-12T08:10:49.207Z,96741.66
2022-10-12T08:11:54.050Z,96742.78
2022-10-12T08:13:01.335Z,96740.34
2022-10-12T08:14:09.011Z,96737.75
2022-10-12T08:15:14.110Z,96743.69
2022-10-12T08:16:25.337Z,96734.38
2022-10-12T08:23:27.095Z,96744.06
2022-10-12T08:24:33.561Z,96740.03
2022-10-12T08:25:38.235Z,96744.78
2022-10-12T08:26:44.728Z,96742.88
2022-10-12T08:27:49.686Z,96746.72
2022-10-12T08:28:56.023Z,96742.88
2022-10-12T08:30:02.182Z,96744.63
2022-10-12T08:31:14.398Z,96749.16
2022-10-12T08:32:18.107Z,96744.25
2022-10-12T08:33:28.231Z,96745.38
2022-10-12T08:34:34.707Z,96741.25
2022-10-12T08:35:38.461Z,96743.81
2022-10-12T08:36:44.159Z,96748.09
2022-10-12T08:37:47.443Z,96747.19
2022-10-12T08:38:55.982Z,96742.25
2022-10-12T08:40:07.056Z,96741.19
2022-10-12T08:41:44.271Z,96740.03
2022-10-12T08:43:02.441Z,96745.91
2022-10-12T08:44:25.045Z,96743.53
2022-10-12T08:45:38.471Z,96749.84
2022-10-12T08:46:40.671Z,96744.78
2022-10-12T08:47:51.585Z,96746.75
2022-10-12T08:49:02.374Z,96740.94
2022-10-12T08:50:10.797Z,96747.22
2022-10-12T08:51:19.063Z,96747.53
2022-10-12T08:52:33.803Z,96739.94
2022-10-12T08:53:45.170Z,96747.78
2022-10-12T08:54:49.849Z,96741.78
2022-10-12T08:55:56.581Z,96736.16
2022-10-12T08:56:58.766Z,96738.28
2022-10-12T08:58:03.541Z,96747.78
2022-10-12T08:59:08.911Z,96739.78
2022-10-12T09:00:16.192Z,96739.59
2022-10-12T09:01:28.775Z,96741.25
2022-10-12T09:02:47.220Z,96746.47
2022-10-12T09:04:07.867Z,96735.03
2022-10-12T09:05:18.175Z,96747.34
2022-10-12T09:06:24.937Z,96743.84
2022-10-12T09:07:29.554Z,96738.28
2022-10-12T09:08:48.857Z,96739.59
2022-10-12T09:10:10.875Z,96735.75
2022-10-12T09:11:21.674Z,96738.13
2022-10-12T09:12:45.977Z,96747.81
2022-10-12T09:13:58.545Z,96742.41
2022-10-12T09:15:05.934Z,96743.88
2022-10-12T09:16:22.624Z,96742.78
2022-10-12T09:17:32.950Z,96741.75
2022-10-12T09:18:42.125Z,96739.00
2022-10-12T09:19:44.152Z,96742.31
2022-10-12T09:20:51.208Z,96744.53
2022-10-12T09:21:55.853Z,96731.41
2022-10-12T09:23:04.764Z,96732.81
2022-10-12T09:24:15.563Z,96736.72
2022-10-12T09:25:22.345Z,96735.41
2022-10-12T09:26:35.993Z,96739.25
2022-10-12T09:27:45.104Z,96733.19
2022-10-12T09:28:53.942Z,96734.44
2022-10-12T09:30:02.018Z,96729.94
2022-10-12T09:31:27.218Z,96727.81
2022-10-12T09:33:05.948Z,96729.06
2022-10-12T09:34:14.442Z,96728.53
2022-10-12T09:35:20.429Z,96733.25
2022-10-12T09:36:27.511Z,96735.47
2022-10-12T09:37:34.707Z,96737.19
2022-10-12T09:38:38.318Z,96750.81
2022-10-12T09:39:43.004Z,96746.97
2022-10-12T09:40:48.341Z,96743.31
2022-10-12T09:41:52.961Z,96746.72
2022-10-12T09:43:00.874Z,96748.09
2022-10-12T09:44:04.320Z,96747.38
2022-10-12T09:45:19.030Z,96757.28
2022-10-12T09:46:36.712Z,96755.78
2022-10-12T09:47:41.484Z,96755.31
2022-10-12T09:49:00.780Z,96755.06
2022-10-12T09:50:07.312Z,96757.16
2022-10-12T09:51:14.253Z,96759.00
2022-10-12T09:52:20.683Z,96759.22
2022-10-12T09:53:31.340Z,96761.78
2022-10-12T09:54:36.618Z,96762.38
2022-10-12T09:55:38.945Z,96755.25
2022-10-12T09:56:45.881Z,96753.16
2022-10-12T09:57:57.251Z,96755.47
2022-10-12T09:59:02.472Z,96754.81
2022-10-12T10:00:09.948Z,96753.44
2022-10-12T10:01:19.435Z,96752.66
2022-10-12T10:02:27.831Z,96756.78
2022-10-12T10:03:30.726Z,96750.75
2022-10-12T10:04:36.602Z,96755.72
2022-10-12T10:05:39.082Z,96747.47
2022-10-12T10:06:46.527Z,96752.50
2022-10-12T10:07:48.572Z,96750.84
2022-10-12T10:08:53.277Z,96748.91
2022-10-12T10:10:16.968Z,96751.94
2022-10-12T10:11:23.470Z,96749.25
2022-10-12T10:12:29.958Z,96747.88
2022-10-12T10:13:35.606Z,96752.78
2022-10-12T10:14:40.599Z,96755.56
2022-10-12T10:15:46.241Z,96758.44
2022-10-12T10:16:53.143Z,96746.47
2022-10-12T10:18:02.966Z,96762.75
2022-10-12T10:19:05.180Z,96750.69
2022-10-12T10:20:25.089Z,96753.59
2022-10-12T10:21:36.274Z,96757.25
2022-10-12T10:22:47.758Z,96755.47
2022-10-12T10:23:55.404Z,96752.66
2022-10-12T10:25:01.802Z,96763.56
2022-10-12T10:26:06.727Z,96763.09
2022-10-12T10:27:31.421Z,96759.28
2022-10-12T10:28:37.771Z,96758.19
2022-10-12T10:29:45.529Z,96752.66
2022-10-12T10:30:56.842Z,96757.31
2022-10-12T10:32:24.516Z,96756.19
2022-10-12T10:33:32.918Z,96757.38
2022-10-12T10:34:35.023Z,96760.66
2022-10-12T10:35:39.850Z,96758.56
2022-10-12T10:36:51.251Z,96758.56
2022-10-12T10:37:56.437Z,96760.06
2022-10-12T10:39:05.407Z,96762.69
2022-10-12T10:40:19.848Z,96764.91
2022-10-12T10:41:26.575Z,96766.81
2022-10-12T10:42:33.423Z,96758.91
2022-10-12T10:43:36.308Z,96759.06
2022-10-12T10:45:50.557Z,96759.38
2022-10-12T10:46:57.121Z,96769.94
2022-10-12T10:48:09.523Z,96764.41
2022-10-12T10:49:28.322Z,96764.59
2022-10-12T10:50:39.497Z,96755.47
2022-10-12T10:51:46.843Z,96762.75
2022-10-12T10:52:57.937Z,96760.31
2022-10-12T10:54:16.950Z,96764.22
2022-10-12T10:55:21.120Z,96762.50
2022-10-12T10:56:29.119Z,96764.34
2022-10-12T10:57:36.374Z,96764.41
2022-10-12T10:58:46.952Z,96761.97
2022-10-12T11:00:02.198Z,96759.75
2022-10-12T11:01:22.308Z,96753.22
2022-10-12T11:02:32.066Z,96753.31
2022-10-12T11:03:47.050Z,96756.31
2022-10-12T11:05:00.494Z,96753.97
2022-10-12T11:06:18.070Z,96755.56
2022-10-12T11:07:30.019Z,96750.44
2022-10-12T11:08:37.932Z,96755.47
2022-10-12T11:09:45.140Z,96755.66
2022-10-12T11:10:53.135Z,96751.06
2022-10-12T11:12:00.446Z,96750.81
2022-10-12T11:13:09.650Z,96748.19
2022-10-12T11:14:16.470Z,96747.53
2022-10-12T11:15:27.048Z,96754.97
2022-10-12T11:16:36.461Z,96743.44
2022-10-12T11:17:42.824Z,96742.78
2022-10-12T11:18:55.266Z,96746.16
2022-10-12T11:20:17.334Z,96740.91
2022-10-12T11:21:28.027Z,96736.31
2022-10-12T11:22:37.178Z,96745.19
2022-10-12T11:23:48.566Z,96745.75
2022-10-12T11:24:59.418Z,96747.63
2022-10-12T11:26:10.178Z,96740.72
2022-10-12T11:27:21.258Z,96744.44
2022-10-12T11:28:26.522Z,96749.66
2022-10-12T11:29:31.408Z,96743.53
2022-10-12T11:30:41.796Z,96736.69
2022-10-12T11:31:59.103Z,96736.09
2022-10-12T11:33:08.501Z,96734.44
2022-10-12T11:34:20.877Z,96733.41
2022-10-12T11:35:28.036Z,96740.56
2022-10-12T11:36:35.280Z,96729.38
2022-10-12T11:37:42.312Z,96732.19
2022-10-12T11:38:50.657Z,96739.97
2022-10-12T11:39:57.097Z,96724.72
2022-10-12T11:41:33.842Z,96725.09
2022-10-12T11:42:43.246Z,96728.88
2022-10-12T11:43:54.123Z,96723.41
2022-10-12T11:44:56.276Z,96719.47
2022-10-12T11:46:05.630Z,96719.97
2022-10-12T11:47:14.040Z,96721.41
2022-10-12T11:48:27.143Z,96721.00
2022-10-12T11:49:35.608Z,96720.72
2022-10-12T11:50:42.990Z,96724.97
2022-10-12T11:51:50.944Z,96716.09
2022-10-12T11:52:55.011Z,96718.13
2022-10-12T11:54:05.369Z,96717.56
2022-10-12T11:55:46.839Z,96719.59
2022-10-12T11:56:56.359Z,96715.69
2022-10-12T11:58:12.547Z,96714.34
2022-10-12T11:59:26.687Z,96711.59
2022-10-12T12:00:36.864Z,96708.31
2022-10-12T12:01:52.233Z,96713.13
2022-10-12T12:03:03.583Z,96713.69
2022-10-12T12:04:40.615Z,96710.00
2022-10-12T12:05:43.882Z,96705.09
2022-10-12T12:06:51.379Z,96714.38
2022-10-12T12:07:59.387Z,96700.00
2022-10-12T12:09:18.606Z,96703.84
2022-10-12T12:10:53.306Z,96715.22
2022-10-12T12:12:11.733Z,96708.56
2022-10-12T12:13:23.242Z,96716.66
2022-10-12T12:14:50.869Z,96717.03
2022-10-12T12:16:36.791Z,96704.94
2022-10-12T12:17:41.611Z,96704.16
2022-10-12T12:19:14.565Z,96702.63
2022-10-12T12:20:49.238Z,96696.41
2022-10-12T12:22:26.585Z,96703.03
2022-10-12T12:23:35.870Z,96707.03
2022-10-12T12:24:39.255Z,96707.22
2022-10-12T12:25:43.993Z,96701.03
2022-10-12T12:26:48.031Z,96694.75
2022-10-12T12:27:55.826Z,96700.06
2022-10-12T12:29:14.267Z,96694.53
2022-10-12T12:30:34.767Z,96696.75
2022-10-12T12:31:41.434Z,96700.59
2022-10-12T12:32:47.527Z,96697.09
2022-10-12T12:34:03.405Z,96694.34
2022-10-12T12:35:06.242Z,96692.84
2022-10-12T12:36:14.985Z,96699.78
2022-10-12T12:37:29.348Z,96692.63
2022-10-12T12:38:36.436Z,96696.97
2022-10-12T12:39:40.406Z,96687.59
2022-10-12T12:40:58.595Z,96695.97
2022-10-12T12:42:06.401Z,96695.59
2022-10-12T12:43:39.074Z,96698.72
2022-10-12T12:44:46.629Z,96690.78
2022-10-12T12:45:57.544Z,96693.06
2022-10-12T12:47:44.553Z,96688.03
2022-10-12T12:48:58.080Z,96685.81
2022-10-12T12:50:07.462Z,96681.09
2022-10-12T12:51:11.509Z,96679.03
2022-10-12T12:52:29.422Z,96669.25
2022-10-12T12:53:31.634Z,96674.34
2022-10-12T12:54:38.958Z,96673.19
2022-10-12T12:56:00.767Z,96671.56
2022-10-12T12:57:32.807Z,96674.88
2022-10-12T12:58:58.964Z,96682.13
2022-10-12T13:00:25.039Z,96677.22
2022-10-12T13:01:56.217Z,96679.38
2022-10-12T13:03:23.321Z,96667.56
2022-10-12T13:04:53.887Z,96668.56
2022-10-12T13:06:30.581Z,96675.13
2022-10-12T13:08:03.264Z,96676.66
2022-10-12T13:09:25.696Z,96677.97
2022-10-12T13:10:43.384Z,96674.72
2022-10-12T13:12:10.224Z,96667.44
2022-10-12T13:13:38.826Z,96673.88
2022-10-12T13:15:05.853Z,96666.16
2022-10-12T13:17:09.586Z,96664.63
2022-10-12T13:18:04.751Z,96665.97
2022-10-12T13:19:16.675Z,96667.34
2022-10-12T13:20:29.346Z,96666.19
2022-10-12T13:21:40.458Z,96664.09
2022-10-12T13:22:47.139Z,96666.59
2022-10-12T13:23:58.335Z,96670.19
2022-10-12T13:25:07.209Z,96664.34
2022-10-12T13:26:13.738Z,96668.41
2022-10-12T13:27:24.269Z,96671.56
2022-10-12T13:28:31.879Z,96674.44
2022-10-12T13:29:39.775Z,96665.47
2022-10-12T13:30:49.640Z,96672.75
2022-10-12T13:31:57.829Z,96669.47
2022-10-12T13:33:06.571Z,96666.84
2022-10-12T13:34:19.240Z,96665.63